EDDM/MUC METAR and TAF weather

Enter ICAO airport designator
Station Type Date Time Source
EDDM METAR 2022/12/02 22:50 UTC NOAA

EDDM 022250Z AUTO 09006KT 4200 BR OVC003 00/M00 Q1018 NOSIG


Station Type Date Time Source
EDDM Decoded METAR 2022/12/02 22:50 UTC NOAA

Munchen, Germany (EDDM) 48-21N 011-47E
Dec 02, 2022 - 05:50 PM EST / 2022.12.02 2250 UTC
Wind: from the E (090 degrees) at 7 MPH (6 KT):0
Visibility: 2 mile(s):0
Sky conditions: overcast
Weather: mist
Temperature: 32 F (0 C)
Windchill: 24 F (-4 C):1
Dew Point: 32 F (0 C)
Relative Humidity: 100%
Pressure (altimeter): 30.06 in. Hg (1018 hPa)
ob: EDDM 022250Z AUTO 09006KT 4200 BR OVC003 00/M00 Q1018 NOSIG
cycle: 23

Station Type Date Time Source
EDDM TAF 2022/12/02 20:37 UTC NOAA

TAF
AMD EDDM 022028Z 0220/0324 10005KT 6000 OVC008
TEMPO 0220/0310 4000 BR BKN004 PROB30
TEMPO 0222/0308 2500
TEMPO 0312/0316 BKN012
TEMPO 0320/0324 4000 BR BKN004

Example: see airport list